createdAt,value
2018-07-09T00:01:44.790Z,58.00
2018-07-09T00:04:18.538Z,58.10
2018-07-09T00:06:52.892Z,58.20
2018-07-09T00:09:27.446Z,58.40
2018-07-09T00:14:33.474Z,58.40
2018-07-09T00:17:07.332Z,58.40
2018-07-09T00:19:41.136Z,58.20
2018-07-09T00:24:47.537Z,58.20
2018-07-09T00:27:22.286Z,58.30
2018-07-09T00:29:56.121Z,58.40
2018-07-09T00:32:30.923Z,58.20
2018-07-09T00:35:04.854Z,58.20
2018-07-09T00:37:39.199Z,58.50
2018-07-09T00:40:12.975Z,57.60
2018-07-09T00:42:46.839Z,57.40
2018-07-09T00:45:21.027Z,57.30
2018-07-09T00:47:55.024Z,57.10
2018-07-09T01:07:08.831Z,56.70
2018-07-09T01:09:42.718Z,56.50
2018-07-09T01:12:17.642Z,57.20
2018-07-09T01:14:51.466Z,57.10
2018-07-09T01:17:25.937Z,57.30
2018-07-09T01:20:00.056Z,57.20
2018-07-09T01:22:34.001Z,57.40
2018-07-09T02:07:17.632Z,57.40
2018-07-09T02:09:51.044Z,57.20
2018-07-09T02:12:25.821Z,57.60
2018-07-09T02:18:51.813Z,57.40
2018-07-09T02:21:25.901Z,56.70
2018-07-09T02:23:59.497Z,57.20
2018-07-09T02:26:34.197Z,56.10
2018-07-09T02:29:08.492Z,55.80
2018-07-09T02:31:42.775Z,55.60
2018-07-09T02:34:17.203Z,55.10
2018-07-09T03:02:55.026Z,55.30
2018-07-09T03:05:28.511Z,55.20
2018-07-09T03:08:02.358Z,55.80
2018-07-09T03:10:36.184Z,55.80
2018-07-09T03:13:10.154Z,55.20
2018-07-09T03:15:44.257Z,54.90
2018-07-09T03:20:50.928Z,54.30
2018-07-09T03:23:25.116Z,54.00
2018-07-09T03:25:59.127Z,54.20
2018-07-09T03:28:35.542Z,53.80
2018-07-09T03:31:10.516Z,53.60
2018-07-09T03:33:44.744Z,53.50
2018-07-09T03:36:19.225Z,53.10
2018-07-09T03:38:53.342Z,52.60
2018-07-09T03:41:27.629Z,52.10
2018-07-09T03:44:01.606Z,51.70
2018-07-09T03:46:35.696Z,51.60
2018-07-09T03:49:10.320Z,51.10
2018-07-09T03:51:45.923Z,50.80
2018-07-09T03:54:19.974Z,50.70
2018-07-09T03:56:53.715Z,51.00
2018-07-09T03:59:27.671Z,50.80
2018-07-09T04:04:35.036Z,50.70
2018-07-09T04:20:15.515Z,50.60
2018-07-09T04:22:49.530Z,50.20
2018-07-09T04:30:28.503Z,50.10
2018-07-09T04:33:02.539Z,50.00
2018-07-09T04:35:36.123Z,49.90
2018-07-09T04:40:43.275Z,50.00
2018-07-09T04:43:17.606Z,49.70
2018-07-09T04:45:51.750Z,50.00
2018-07-09T04:48:25.736Z,50.10
2018-07-09T04:51:00.046Z,49.70
2018-07-09T04:53:36.891Z,49.60
2018-07-09T04:58:47.766Z,49.50
2018-07-09T05:01:21.957Z,48.80
2018-07-09T05:03:57.214Z,49.00
2018-07-09T05:06:31.082Z,48.80
2018-07-09T05:09:05.489Z,48.50
2018-07-09T05:11:39.412Z,48.30
2018-07-09T05:14:13.277Z,48.80
2018-07-09T05:16:47.014Z,48.20
2018-07-09T05:19:21.061Z,47.80
2018-07-09T05:24:27.289Z,47.90
2018-07-09T05:27:02.069Z,47.70
2018-07-09T05:29:36.099Z,47.40
2018-07-09T05:32:10.217Z,47.30
2018-07-09T05:34:44.463Z,47.30
2018-07-09T05:37:18.603Z,47.20
2018-07-09T05:39:52.872Z,47.10
2018-07-09T05:42:27.123Z,47.00
2018-07-09T05:45:01.061Z,46.60
2018-07-09T05:47:35.310Z,46.40
2018-07-09T05:50:09.163Z,46.30
2018-07-09T05:52:43.381Z,46.20
2018-07-09T05:55:19.046Z,46.40
2018-07-09T05:57:53.168Z,46.20
2018-07-09T06:00:27.640Z,46.00
2018-07-09T06:03:01.398Z,46.00
2018-07-09T06:05:35.411Z,46.00
2018-07-09T06:08:10.385Z,46.10
2018-07-09T06:10:44.180Z,45.40
2018-07-09T06:13:17.667Z,45.50
2018-07-09T06:18:24.218Z,45.90
2018-07-09T06:20:58.210Z,45.80
2018-07-09T06:23:31.966Z,45.60
2018-07-09T06:26:05.776Z,45.80
2018-07-09T06:31:40.824Z,46.20
2018-07-09T06:34:15.261Z,46.50
2018-07-09T06:36:52.188Z,46.50
2018-07-09T06:39:26.457Z,46.60
2018-07-09T06:42:00.387Z,46.30
2018-07-09T06:47:07.584Z,47.50
2018-07-09T06:49:41.640Z,46.60
2018-07-09T06:54:46.434Z,46.30
2018-07-09T06:57:28.260Z,45.70
2018-07-09T07:00:02.209Z,45.60
2018-07-09T07:02:35.934Z,45.20
2018-07-09T07:05:10.356Z,45.30
2018-07-09T07:07:44.652Z,45.60
2018-07-09T07:10:18.904Z,45.90
2018-07-09T07:12:52.623Z,45.70
2018-07-09T07:15:26.891Z,45.80
2018-07-09T07:18:00.868Z,45.90
2018-07-09T07:20:35.011Z,45.60
2018-07-09T07:25:41.657Z,45.60
2018-07-09T07:28:15.341Z,45.60
2018-07-09T07:30:49.704Z,45.40
2018-07-09T07:33:24.101Z,45.40
2018-07-09T07:35:59.202Z,45.40
2018-07-09T07:38:33.256Z,45.70
2018-07-09T07:41:07.433Z,45.70
2018-07-09T07:43:41.452Z,46.00
2018-07-09T07:46:15.726Z,45.90
2018-07-09T07:48:49.838Z,45.90
2018-07-09T07:53:57.002Z,45.30
2018-07-09T07:56:30.715Z,45.00
2018-07-09T07:59:06.606Z,44.80
2018-07-09T08:01:40.663Z,45.00
2018-07-09T08:04:15.976Z,44.80
2018-07-09T08:06:51.641Z,44.60
2018-07-09T08:09:25.696Z,44.80
2018-07-09T08:12:59.675Z,44.30
2018-07-09T08:14:34.273Z,44.20
2018-07-09T08:17:08.002Z,43.70
2018-07-09T08:19:42.079Z,43.80
2018-07-09T08:22:16.395Z,43.80
2018-07-09T08:24:51.070Z,44.00
2018-07-09T08:27:25.118Z,44.50
2018-07-09T08:29:59.651Z,44.60
2018-07-09T08:35:06.526Z,44.10
2018-07-09T08:37:41.162Z,44.80
2018-07-09T08:40:14.733Z,44.60
2018-07-09T08:42:49.915Z,45.00
2018-07-09T08:50:28.854Z,44.90
2018-07-09T08:53:02.427Z,45.30
2018-07-09T08:55:38.067Z,45.40
2018-07-09T08:58:12.065Z,45.40
2018-07-09T09:00:46.998Z,45.10
2018-07-09T09:03:20.924Z,45.70
2018-07-09T09:05:55.604Z,45.50
2018-07-09T09:08:30.052Z,45.60
2018-07-09T09:11:04.031Z,45.80
2018-07-09T09:13:38.617Z,46.00
2018-07-09T09:16:12.405Z,46.10
2018-07-09T09:18:46.717Z,46.20
2018-07-09T09:21:21.416Z,46.20
2018-07-09T09:23:55.474Z,46.20
2018-07-09T09:26:30.485Z,46.60
2018-07-09T09:29:07.046Z,47.00
2018-07-09T09:34:24.439Z,47.40
2018-07-09T09:36:59.764Z,47.70
2018-07-09T09:39:33.943Z,47.90
2018-07-09T09:42:10.591Z,48.20
2018-07-09T09:47:16.862Z,49.00
2018-07-09T09:49:51.013Z,49.10
2018-07-09T09:52:27.108Z,49.30
2018-07-09T09:55:01.980Z,49.50
2018-07-09T09:57:35.997Z,49.80
2018-07-09T10:00:12.822Z,49.90
2018-07-09T10:02:48.255Z,50.10
2018-07-09T10:05:22.045Z,50.00
2018-07-09T10:07:56.299Z,50.10
2018-07-09T10:10:30.459Z,50.50
2018-07-09T10:13:04.895Z,50.60
2018-07-09T10:15:38.740Z,50.90
2018-07-09T10:18:13.068Z,51.10
2018-07-09T10:20:50.357Z,51.40
2018-07-09T10:23:24.469Z,51.60
2018-07-09T10:26:01.250Z,51.80
2018-07-09T10:28:35.319Z,52.00
2018-07-09T10:31:09.206Z,51.90
2018-07-09T10:33:47.058Z,52.10
2018-07-09T10:36:23.435Z,52.40
2018-07-09T10:38:57.063Z,52.50
2018-07-09T10:41:32.372Z,52.60
2018-07-09T10:44:06.626Z,52.60
2018-07-09T10:46:41.579Z,52.60
2018-07-09T10:49:15.645Z,52.70
2018-07-09T10:51:52.531Z,52.90
2018-07-09T10:56:59.038Z,53.20
2018-07-09T11:02:04.947Z,53.60
2018-07-09T11:04:42.712Z,53.60
2018-07-09T11:09:48.701Z,53.70
2018-07-09T11:12:22.580Z,53.50
2018-07-09T11:14:58.657Z,53.60
2018-07-09T11:17:32.621Z,53.70
2018-07-09T11:20:06.574Z,53.90
2018-07-09T11:22:40.426Z,54.20
2018-07-09T11:25:16.754Z,54.30
2018-07-09T11:27:51.562Z,54.40
2018-07-09T11:32:58.755Z,54.30
2018-07-09T11:35:33.465Z,54.30
2018-07-09T11:38:15.710Z,54.50
2018-07-09T11:40:50.699Z,54.70
2018-07-09T11:43:26.867Z,54.80
2018-07-09T12:07:08.235Z,54.90
2018-07-09T12:09:42.940Z,55.10
2018-07-09T12:14:50.101Z,56.90
2018-07-09T12:17:24.239Z,57.10
2018-07-09T12:25:03.662Z,57.10
2018-07-09T12:27:38.034Z,57.30
2018-07-09T12:30:13.277Z,57.60
2018-07-09T12:35:18.843Z,57.40
2018-07-09T12:37:52.440Z,57.40
2018-07-09T12:40:26.296Z,57.50
2018-07-09T12:43:00.268Z,57.50
2018-07-09T12:45:34.368Z,57.10
2018-07-09T12:48:08.277Z,57.10
2018-07-09T12:53:13.758Z,59.60
2018-07-09T12:55:48.638Z,58.20
2018-07-09T12:58:22.640Z,57.70
2018-07-09T13:00:56.690Z,57.70
2018-07-09T13:03:30.431Z,57.10
2018-07-09T13:06:04.467Z,56.10
2018-07-09T13:08:38.388Z,55.60
2018-07-09T13:11:14.085Z,55.90
2018-07-09T13:16:20.117Z,56.90
2018-07-09T13:18:53.932Z,57.60
2018-07-09T13:21:28.096Z,57.70
2018-07-09T13:26:42.249Z,57.90
2018-07-09T13:29:16.321Z,57.60
2018-07-09T13:31:50.191Z,57.90
2018-07-09T13:34:24.294Z,58.30
2018-07-09T13:36:58.363Z,58.70
2018-07-09T13:39:32.295Z,58.80
2018-07-09T13:42:06.477Z,59.10
2018-07-09T13:44:41.186Z,59.70
2018-07-09T13:47:14.952Z,60.50
2018-07-09T13:52:21.469Z,61.10
2018-07-09T13:54:55.763Z,61.60
2018-07-09T14:02:35.060Z,61.20
2018-07-09T14:05:08.968Z,61.20
2018-07-09T14:07:42.953Z,61.60
2018-07-09T14:10:17.215Z,61.70
2018-07-09T14:12:51.918Z,61.70
2018-07-09T14:15:26.106Z,61.90
2018-07-09T14:20:36.993Z,61.80
2018-07-09T14:23:11.944Z,61.10
2018-07-09T14:25:46.178Z,60.40
2018-07-09T14:28:20.056Z,60.10
2018-07-09T14:30:54.288Z,60.10
2018-07-09T14:36:01.116Z,60.20
2018-07-09T14:38:35.126Z,60.50
2018-07-09T14:41:08.809Z,60.70
2018-07-09T14:43:42.492Z,61.30
2018-07-09T14:46:16.495Z,61.60
2018-07-09T14:48:50.150Z,61.80
2018-07-09T14:51:24.214Z,61.90
2018-07-09T15:07:08.350Z,61.80
2018-07-09T15:35:06.173Z,62.90
2018-07-09T15:37:40.454Z,65.50
2018-07-09T15:40:14.648Z,66.40
2018-07-09T15:42:48.167Z,66.60
2018-07-09T15:45:22.303Z,66.70
2018-07-09T15:47:56.650Z,66.70
2018-07-09T15:55:35.723Z,66.60
2018-07-09T16:00:42.406Z,66.20
2018-07-09T16:03:17.559Z,66.00
2018-07-09T16:08:25.174Z,66.60
2018-07-09T16:10:58.916Z,65.80
2018-07-09T16:13:33.103Z,66.10
2018-07-09T16:16:06.620Z,66.10
2018-07-09T16:18:41.353Z,66.00
2018-07-09T16:21:15.161Z,65.80
2018-07-09T16:23:49.441Z,66.00
2018-07-09T16:26:23.670Z,65.90
2018-07-09T16:31:30.637Z,66.00
2018-07-09T16:34:04.758Z,66.10
2018-07-09T16:36:41.208Z,66.10
2018-07-09T16:39:15.566Z,66.30
2018-07-09T16:44:22.827Z,66.30
2018-07-09T16:46:56.796Z,66.40
2018-07-09T16:54:36.225Z,66.30
2018-07-09T16:57:10.170Z,66.20
2018-07-09T17:02:17.576Z,66.20
2018-07-09T17:04:51.618Z,66.50
2018-07-09T17:09:58.717Z,66.90
2018-07-09T17:12:32.843Z,66.90
2018-07-09T17:15:08.031Z,66.80
2018-07-09T17:20:15.370Z,66.50
2018-07-09T17:22:49.359Z,66.20
2018-07-09T17:27:57.050Z,66.40
2018-07-09T17:30:32.858Z,66.50
2018-07-09T17:33:09.407Z,66.50
2018-07-09T17:35:45.007Z,66.60
2018-07-09T17:38:20.863Z,66.70
2018-07-09T17:40:54.984Z,66.80
2018-07-09T17:43:29.067Z,67.00
2018-07-09T17:46:03.143Z,67.00
2018-07-09T17:48:36.891Z,67.20
2018-07-09T17:51:11.487Z,67.50
2018-07-09T17:53:45.233Z,67.90
2018-07-09T17:58:51.875Z,68.10
2018-07-09T18:01:25.700Z,68.20
2018-07-09T18:04:00.615Z,68.40
2018-07-09T18:06:34.587Z,68.70
2018-07-09T18:09:08.588Z,69.10
2018-07-09T18:11:42.240Z,69.40
2018-07-09T18:14:16.425Z,69.80
2018-07-09T18:16:49.933Z,69.70
2018-07-09T18:19:23.485Z,69.90
2018-07-09T18:21:57.062Z,69.90
2018-07-09T18:24:30.905Z,70.00
2018-07-09T18:27:04.929Z,69.80
2018-07-09T18:29:38.969Z,70.10
2018-07-09T18:32:13.957Z,70.00
2018-07-09T18:34:47.975Z,70.20
2018-07-09T18:37:21.680Z,70.10
2018-07-09T18:39:56.834Z,70.00
2018-07-09T18:42:30.810Z,70.20
2018-07-09T18:45:04.667Z,70.30
2018-07-09T18:47:38.190Z,70.50
2018-07-09T18:52:45.149Z,70.60
2018-07-09T18:55:19.566Z,70.50
2018-07-09T18:57:53.339Z,70.50
2018-07-09T19:00:26.826Z,70.40
2018-07-09T19:03:00.496Z,70.50
2018-07-09T19:08:23.229Z,70.60
2018-07-09T19:10:57.804Z,70.70
2018-07-09T19:16:04.042Z,70.90
2018-07-09T19:18:46.940Z,70.80
2018-07-09T19:21:30.760Z,70.90
2018-07-09T19:24:01.839Z,70.80
2018-07-09T19:26:32.651Z,71.20
2018-07-09T19:29:03.284Z,70.90
2018-07-09T19:31:33.805Z,70.80
2018-07-09T19:34:04.414Z,70.90
2018-07-09T19:41:38.167Z,71.10
2018-07-09T19:44:08.938Z,71.10
2018-07-09T19:46:40.241Z,71.10
2018-07-09T19:49:10.900Z,71.20
2018-07-09T19:51:41.467Z,71.30
2018-07-09T19:54:11.654Z,71.30
2018-07-09T19:56:42.076Z,71.30
2018-07-09T19:59:12.665Z,71.50
2018-07-09T20:01:43.090Z,71.50
2018-07-09T20:04:13.695Z,71.60
2018-07-09T20:06:44.259Z,71.70
2018-07-09T20:09:22.701Z,71.70
2018-07-09T20:11:55.418Z,71.80
2018-07-09T20:14:30.004Z,71.90
2018-07-09T20:17:04.270Z,72.00
2018-07-09T20:19:34.782Z,72.00
2018-07-09T20:22:06.223Z,72.00
2018-07-09T20:24:38.284Z,72.00
2018-07-09T20:27:09.246Z,72.10
2018-07-09T20:29:40.092Z,72.20
2018-07-09T20:32:10.905Z,72.30
2018-07-09T20:34:41.672Z,72.40
2018-07-09T20:37:12.634Z,72.30
2018-07-09T20:39:42.867Z,72.50
2018-07-09T20:42:14.353Z,72.50
2018-07-09T20:44:44.782Z,72.40
2018-07-09T20:47:16.328Z,72.40
2018-07-09T20:49:47.345Z,72.40
2018-07-09T20:52:17.656Z,72.50
2018-07-09T20:54:47.958Z,72.00
2018-07-09T20:57:19.231Z,72.80
2018-07-09T20:59:49.860Z,72.70
2018-07-09T21:02:20.494Z,72.70
2018-07-09T21:04:51.556Z,72.90
2018-07-09T21:07:22.105Z,72.90
2018-07-09T21:09:52.685Z,73.00
2018-07-09T21:12:23.107Z,73.20
2018-07-09T21:14:53.840Z,73.20
2018-07-09T21:17:24.384Z,73.20
2018-07-09T21:19:55.480Z,73.10
2018-07-09T21:22:25.948Z,73.30
2018-07-09T21:24:56.192Z,73.40
2018-07-09T21:27:26.602Z,73.40
2018-07-09T21:29:56.795Z,73.20
2018-07-09T21:32:27.445Z,73.30
2018-07-09T21:37:28.558Z,73.60
2018-07-09T21:39:58.638Z,73.60
2018-07-09T21:45:00.549Z,73.60
2018-07-09T21:47:30.626Z,73.60
2018-07-09T21:50:00.939Z,73.60
2018-07-09T21:52:31.410Z,73.70
2018-07-09T21:55:01.820Z,73.60
2018-07-09T22:00:02.715Z,73.70
2018-07-09T22:02:33.250Z,73.70
2018-07-09T22:05:03.825Z,73.60
2018-07-09T22:07:35.704Z,73.80
2018-07-09T22:12:37.397Z,73.90
2018-07-09T22:15:09.085Z,73.80
2018-07-09T22:17:40.136Z,74.00
2018-07-09T22:20:10.830Z,74.10
2018-07-09T22:22:41.184Z,74.00
2018-07-09T22:25:11.989Z,74.10
2018-07-09T22:30:13.301Z,74.40
2018-07-09T22:32:47.775Z,74.20
2018-07-09T22:35:21.872Z,74.30
2018-07-09T22:37:55.757Z,74.20
2018-07-09T22:40:29.946Z,74.20
2018-07-09T22:43:08.679Z,74.10
2018-07-09T22:45:42.199Z,74.30
2018-07-09T22:48:16.032Z,74.40
2018-07-09T22:50:50.724Z,74.50
2018-07-09T23:07:10.217Z,74.60
2018-07-09T23:10:08.280Z,74.70
2018-07-09T23:13:49.223Z,75.30
2018-07-09T23:16:56.860Z,76.00
2018-07-09T23:19:39.242Z,76.20
2018-07-09T23:22:26.390Z,76.50
2018-07-09T23:24:57.108Z,76.70
2018-07-09T23:27:27.533Z,76.70
2018-07-09T23:29:58.207Z,76.70
2018-07-09T23:32:28.568Z,76.80
2018-07-09T23:34:59.307Z,76.70
2018-07-09T23:37:29.642Z,76.90
2018-07-09T23:40:00.234Z,76.90
2018-07-09T23:42:31.704Z,76.50
2018-07-09T23:45:03.165Z,76.50
2018-07-09T23:47:33.874Z,76.50
2018-07-09T23:50:04.103Z,76.20
2018-07-09T23:52:35.275Z,76.20
2018-07-09T23:55:05.759Z,76.30
2018-07-09T23:59:20.336Z,76.40
